Duns, United Kingdom
Current Conditions -  °F | °C
As of 6:50 AM on Sunday 26 Oct 2014 (Local Time) from EGQM Reporting Station
Rain Showers Rain Showers  
Wind Chill: 55°   Ceiling: 4500
Heat Index: 55°   Visibility: 6mi
Dew Point: 48°   Wind: 22mph
Humidity: 77%   Direction: 210°SSW
Pressure: 29.77"   Gusts: 33mph
Location:  55.78°N, 2.35°W
Report Text: EGQM 260550Z AUTO 21019G29KT 9999 -SHRA BKN045/// 13/09 Q1008
Loading
Personal Weather Stations






























Interactive Weather Map
Tropical Storm Tracking
New forecast layout! Learn more

10-Day Weather Forecast

Advertisements
Track Severe Weather on mobile